Time;durP1;ratioP1;P1;durP2;ratioP2;P2;SDS_P1;SDS_P2;PMS_P1;PMS_P2;Temp;Humidity;BMP_temperature;BMP_pressure;BME280_temperature;BME280_humidity;BME280_pressure;Samples;Min_cycle;Max_cycle;Signal;HPM_P1;HPM_P2
2022/12/08 00:02:13;;;;;;;4.95;4.57;;;;;;;;;;5075590;28;20052;-96
2022/12/08 00:10:07;;;;;;;5.00;4.70;;;;;;;;;;5077408;28;20102;-96
2022/12/08 00:12:33;;;;;;;4.15;3.92;;;;;;;;;;5075497;28;20041;-96
2022/12/08 00:14:59;;;;;;;3.88;3.67;;;;;;;;;;5075567;28;20052;-96
2022/12/08 00:17:26;;;;;;;3.58;3.35;;;;;;;;;;5075335;28;20056;-95
2022/12/08 00:19:52;;;;;;;5.07;4.65;;;;;;;;;;5076181;28;20113;-96
2022/12/08 00:22:19;;;;;;;4.28;3.90;;;;;;;;;;5075252;28;20048;-95
2022/12/08 00:24:45;;;;;;;4.70;4.30;;;;;;;;;;5074952;28;20052;-95
2022/12/08 00:27:14;;;;;;;5.43;5.03;;;;;;;;;;5074804;28;20094;-95
2022/12/08 00:29:42;;;;;;;5.25;4.93;;;;;;;;;;5074919;28;20048;-94
2022/12/08 00:32:09;;;;;;;3.40;3.10;;;;;;;;;;5074689;28;20048;-95
2022/12/08 00:34:35;;;;;;;2.50;2.40;;;;;;;;;;5073639;28;20551;-94
2022/12/08 00:37:02;;;;;;;3.08;2.95;;;;;;;;;;5074749;28;20161;-94
2022/12/08 00:39:28;;;;;;;2.67;2.58;;;;;;;;;;5074873;28;20082;-94
2022/12/08 00:42:13;;;;;;;3.00;2.72;;;;;;;;;;5074619;28;20090;-95
2022/12/08 00:44:41;;;;;;;2.67;2.47;;;;;;;;;;5074387;28;20489;-95
2022/12/08 00:47:07;;;;;;;3.60;3.38;;;;;;;;;;5074572;28;20057;-94
2022/12/08 00:49:34;;;;;;;5.15;4.88;;;;;;;;;;5074220;28;20044;-95
2022/12/08 00:52:01;;;;;;;3.75;3.45;;;;;;;;;;5073908;28;20098;-95
2022/12/08 00:54:27;;;;;;;4.22;3.70;;;;;;;;;;5074035;28;20109;-95
2022/12/08 00:56:54;;;;;;;5.13;4.82;;;;;;;;;;5074353;28;20049;-95
2022/12/08 00:59:20;;;;;;;4.22;3.25;;;;;;;;;;5074182;28;20056;-95
2022/12/08 01:01:48;;;;;;;2.83;2.70;;;;;;;;;;5074307;28;20056;-96
2022/12/08 01:04:16;;;;;;;5.13;4.78;;;;;;;;;;5073941;28;20416;-95
2022/12/08 01:06:42;;;;;;;4.53;4.22;;;;;;;;;;5074102;28;20109;-95
2022/12/08 01:09:09;;;;;;;3.80;3.55;;;;;;;;;;5074083;28;20102;-94
2022/12/08 01:11:36;;;;;;;3.85;3.58;;;;;;;;;;5074107;28;20052;-95
2022/12/08 01:14:03;;;;;;;4.00;3.75;;;;;;;;;;5074027;28;20090;-95
2022/12/08 01:16:31;;;;;;;3.80;3.60;;;;;;;;;;5074095;28;20106;-95
2022/12/08 01:18:59;;;;;;;3.60;3.38;;;;;;;;;;5074073;28;20049;-95
2022/12/08 01:21:26;;;;;;;4.07;3.88;;;;;;;;;;5073672;28;20559;-95
2022/12/08 01:23:52;;;;;;;2.95;2.10;;;;;;;;;;5073857;28;20508;-95
2022/12/08 01:26:19;;;;;;;2.55;2.35;;;;;;;;;;5073622;28;20048;-95
2022/12/08 01:28:46;;;;;;;4.25;4.00;;;;;;;;;;5073539;28;20056;-96
2022/12/08 01:31:14;;;;;;;2.75;2.63;;;;;;;;;;5073387;28;20056;-95
2022/12/08 01:33:40;;;;;;;4.38;4.18;;;;;;;;;;5073849;28;20049;-95
2022/12/08 01:36:09;;;;;;;3.97;3.78;;;;;;;;;;5073781;28;20044;-95
2022/12/08 01:38:35;;;;;;;5.00;4.40;;;;;;;;;;5073753;28;20048;-95
2022/12/08 01:41:01;;;;;;;2.50;2.40;;;;;;;;;;5073794;28;20048;-96
2022/12/08 01:43:45;;;;;;;2.67;2.58;;;;;;;;;;5073690;28;20044;-95
2022/12/08 01:46:11;;;;;;;;;;;;;;;;;;5074061;28;20052;-95
2022/12/08 01:48:38;;;;;;;3.55;3.35;;;;;;;;;;5074004;28;19946;-94
2022/12/08 01:51:05;;;;;;;2.22;2.13;;;;;;;;;;5073312;28;20448;-94
2022/12/08 01:53:33;;;;;;;4.20;3.95;;;;;;;;;;5073556;28;20102;-94
2022/12/08 01:56:01;;;;;;;14.57;3.58;;;;;;;;;;5073596;28;20448;-94
2022/12/08 01:58:30;;;;;;;4.13;3.88;;;;;;;;;;5073383;28;20040;-94
2022/12/08 02:00:57;;;;;;;3.92;3.63;;;;;;;;;;5073454;28;20056;-95
2022/12/08 02:03:25;;;;;;;3.28;2.97;;;;;;;;;;5073601;28;20044;-95
2022/12/08 02:05:51;;;;;;;2.33;2.22;;;;;;;;;;5076771;28;20472;-95
2022/12/08 02:08:18;;;;;;;3.90;3.60;;;;;;;;;;5087765;28;20048;-94
2022/12/08 02:10:49;;;;;;;3.55;3.25;;;;;;;;;;5076460;28;20571;-95
2022/12/08 02:13:17;;;;;;;3.45;3.25;;;;;;;;;;5075232;28;20044;-95
2022/12/08 02:15:48;;;;;;;2.55;2.45;;;;;;;;;;5073501;28;20456;-94
2022/12/08 02:18:20;;;;;;;3.42;3.22;;;;;;;;;;5073359;28;20122;-94
2022/12/08 02:20:52;;;;;;;3.95;3.75;;;;;;;;;;5073345;28;20180;-94
2022/12/08 02:23:24;;;;;;;1.65;1.63;;;;;;;;;;5073219;28;20044;-94
2022/12/08 02:26:11;;;;;;;2.55;2.45;;;;;;;;;;5073229;28;20102;-95
2022/12/08 02:28:53;;;;;;;3.60;3.17;;;;;;;;;;5039630;28;20090;-94
2022/12/08 02:31:26;;;;;;;4.20;4.00;;;;;;;;;;5073348;28;20449;-94
2022/12/08 02:34:09;;;;;;;3.22;3.00;;;;;;;;;;5072974;28;20052;-94
2022/12/08 02:36:39;;;;;;;4.60;4.38;;;;;;;;;;5073496;28;20048;-94
2022/12/08 02:39:10;;;;;;;4.57;3.78;;;;;;;;;;5072776;28;20045;-94
2022/12/08 02:41:39;;;;;;;2.25;2.05;;;;;;;;;;5072799;28;20436;-94
2022/12/08 02:44:09;;;;;;;2.70;2.47;;;;;;;;;;5072744;28;20102;-94
2022/12/08 02:46:38;;;;;;;4.50;3.53;;;;;;;;;;5072925;28;20478;-95
2022/12/08 02:49:06;;;;;;;3.05;2.85;;;;;;;;;;5073327;28;20049;-96
2022/12/08 02:51:32;;;;;;;3.28;3.10;;;;;;;;;;5072936;28;20049;-96
2022/12/08 02:53:59;;;;;;;4.30;3.92;;;;;;;;;;5073526;28;20052;-95
2022/12/08 02:56:33;;;;;;;3.17;2.97;;;;;;;;;;5073581;28;20542;-94
2022/12/08 02:59:09;;;;;;;2.65;2.45;;;;;;;;;;5076636;28;20477;-95
2022/12/08 03:01:43;;;;;;;6.68;3.28;;;;;;;;;;5076328;28;20048;-95
2022/12/08 03:04:16;;;;;;;3.38;3.20;;;;;;;;;;5076045;28;20543;-95
2022/12/08 03:06:48;;;;;;;3.45;3.30;;;;;;;;;;5076613;28;20083;-95
2022/12/08 03:09:18;;;;;;;3.75;3.55;;;;;;;;;;5076535;28;20056;-95
2022/12/08 03:11:48;;;;;;;3.30;3.17;;;;;;;;;;5076330;28;20509;-95
2022/12/08 03:14:16;;;;;;;3.55;3.35;;;;;;;;;;5076204;28;20048;-95
2022/12/08 03:16:43;;;;;;;4.85;4.55;;;;;;;;;;5076633;28;20048;-95
2022/12/08 03:19:16;;;;;;;5.40;5.13;;;;;;;;;;5076272;28;20045;-95
2022/12/08 03:21:44;;;;;;;4.10;3.90;;;;;;;;;;5076141;28;20044;-95
2022/12/08 03:24:12;;;;;;;4.07;3.88;;;;;;;;;;5076016;28;20048;-94
2022/12/08 03:26:41;;;;;;;4.60;4.32;;;;;;;;;;5076501;28;20102;-95
2022/12/08 03:29:08;;;;;;;3.72;3.55;;;;;;;;;;5076031;28;20486;-95
2022/12/08 03:31:38;;;;;;;4.80;4.45;;;;;;;;;;5076092;28;20102;-96
2022/12/08 03:34:05;;;;;;;4.40;4.03;;;;;;;;;;5076037;28;20052;-96
2022/12/08 03:36:33;;;;;;;2.83;2.72;;;;;;;;;;5075860;28;20489;-96
2022/12/08 03:38:59;;;;;;;5.22;4.53;;;;;;;;;;5076015;28;20102;-96
2022/12/08 03:41:26;;;;;;;3.67;3.45;;;;;;;;;;5076255;28;20100;-96
2022/12/08 03:43:53;;;;;;;6.68;6.07;;;;;;;;;;5075988;28;20055;-96
2022/12/08 03:46:20;;;;;;;6.05;5.75;;;;;;;;;;5075694;28;20098;-94
2022/12/08 03:48:47;;;;;;;2.75;2.55;;;;;;;;;;5075569;28;20455;-96
2022/12/08 03:51:14;;;;;;;6.55;5.97;;;;;;;;;;5075845;28;20045;-96
2022/12/08 03:53:42;;;;;;;3.10;2.70;;;;;;;;;;5075525;28;20048;-96
2022/12/08 03:56:14;;;;;;;5.70;5.30;;;;;;;;;;5075652;28;20098;-95
2022/12/08 03:58:41;;;;;;;4.88;4.32;;;;;;;;;;5075497;28;20173;-96
2022/12/08 04:01:07;;;;;;;3.75;3.55;;;;;;;;;;5075184;28;20102;-95
2022/12/08 04:03:34;;;;;;;4.10;3.83;;;;;;;;;;5075236;28;20045;-95
2022/12/08 04:06:00;;;;;;;5.50;5.13;;;;;;;;;;5075052;28;20052;-95
2022/12/08 04:08:27;;;;;;;5.07;4.78;;;;;;;;;;5075568;28;20048;-95
2022/12/08 04:10:55;;;;;;;3.72;3.53;;;;;;;;;;5078200;28;20048;-95
2022/12/08 04:13:21;;;;;;;4.72;4.43;;;;;;;;;;5089926;28;20094;-95
2022/12/08 04:15:48;;;;;;;4.00;3.45;;;;;;;;;;5079908;28;20554;-96
2022/12/08 04:18:15;;;;;;;4.25;3.92;;;;;;;;;;5077634;28;20084;-95
2022/12/08 04:20:42;;;;;;;3.45;3.25;;;;;;;;;;5074970;28;20052;-94
2022/12/08 04:23:08;;;;;;;2.47;2.38;;;;;;;;;;5074880;28;20049;-96
2022/12/08 04:25:35;;;;;;;3.65;3.38;;;;;;;;;;5075303;28;20049;-96
2022/12/08 04:28:03;;;;;;;3.45;3.30;;;;;;;;;;5074509;28;20052;-96
2022/12/08 04:30:30;;;;;;;3.67;3.03;;;;;;;;;;5075025;28;20049;-96
2022/12/08 04:32:56;;;;;;;5.55;5.05;;;;;;;;;;5074856;28;20109;-96
2022/12/08 04:35:23;;;;;;;5.40;5.10;;;;;;;;;;5074614;28;20102;-95
2022/12/08 04:37:49;;;;;;;4.53;4.13;;;;;;;;;;5074735;28;20056;-94
2022/12/08 04:40:16;;;;;;;4.28;4.05;;;;;;;;;;5074727;28;20044;-95
2022/12/08 04:42:42;;;;;;;3.72;3.50;;;;;;;;;;5074440;28;20094;-94
2022/12/08 04:45:10;;;;;;;4.78;4.47;;;;;;;;;;5074176;28;20542;-94
2022/12/08 04:47:37;;;;;;;3.08;2.85;;;;;;;;;;5074654;28;20053;-95
2022/12/08 04:50:04;;;;;;;5.78;4.13;;;;;;;;;;5074302;28;20040;-96
2022/12/08 04:52:30;;;;;;;5.25;4.13;;;;;;;;;;5074001;28;20070;-96
2022/12/08 04:54:57;;;;;;;4.20;3.55;;;;;;;;;;5073954;28;20087;-96
2022/12/08 04:57:24;;;;;;;3.45;3.15;;;;;;;;;;5073957;28;20052;-95
2022/12/08 04:59:50;;;;;;;4.63;3.47;;;;;;;;;;5073948;28;20485;-95
2022/12/08 05:02:18;;;;;;;4.85;4.55;;;;;;;;;;5074264;28;20063;-96
2022/12/08 05:04:44;;;;;;;2.47;2.38;;;;;;;;;;5074009;28;20097;-96
2022/12/08 05:07:11;;;;;;;3.72;3.42;;;;;;;;;;5074334;28;20452;-96
2022/12/08 05:09:37;;;;;;;4.15;3.45;;;;;;;;;;5073936;28;20098;-96
2022/12/08 05:12:04;;;;;;;3.17;2.97;;;;;;;;;;5073882;28;20481;-96
2022/12/08 05:14:31;;;;;;;2.90;2.78;;;;;;;;;;5073784;28;20044;-96
2022/12/08 05:16:57;;;;;;;3.42;3.22;;;;;;;;;;5073853;28;20048;-96
2022/12/08 05:19:25;;;;;;;2.28;2.13;;;;;;;;;;5073523;28;20044;-96
2022/12/08 05:21:51;;;;;;;4.53;4.22;;;;;;;;;;5073678;28;20460;-96
2022/12/08 05:24:18;;;;;;;2.10;2.00;;;;;;;;;;5073734;28;20048;-96
2022/12/08 05:26:44;;;;;;;3.78;3.58;;;;;;;;;;5073993;28;20049;-96
2022/12/08 05:29:11;;;;;;;4.07;3.78;;;;;;;;;;5073584;28;20048;-95
2022/12/08 05:31:38;;;;;;;3.03;2.83;;;;;;;;;;5074026;28;20452;-94
2022/12/08 05:34:04;;;;;;;3.03;2.92;;;;;;;;;;5073577;28;20044;-95
2022/12/08 05:36:32;;;;;;;4.38;4.05;;;;;;;;;;5073798;28;20101;-95
2022/12/08 05:38:59;;;;;;;2.83;2.60;;;;;;;;;;5073316;28;20045;-95
2022/12/08 05:41:25;;;;;;;5.43;5.13;;;;;;;;;;5073529;28;20554;-94
2022/12/08 05:43:52;;;;;;;3.45;3.25;;;;;;;;;;5073739;28;20049;-96
2022/12/08 05:46:18;;;;;;;5.70;4.30;;;;;;;;;;5073722;28;20482;-95
2022/12/08 05:48:45;;;;;;;5.50;5.10;;;;;;;;;;5073685;28;20053;-95
2022/12/08 05:51:15;;;;;;;2.97;2.85;;;;;;;;;;5073569;28;20044;-95
2022/12/08 05:53:43;;;;;;;5.20;4.53;;;;;;;;;;5073392;28;20044;-96
2022/12/08 05:56:10;;;;;;;4.32;4.03;;;;;;;;;;5073579;28;20444;-95
2022/12/08 05:58:36;;;;;;;3.60;3.40;;;;;;;;;;5073908;28;20209;-95
2022/12/08 06:01:03;;;;;;;4.72;4.43;;;;;;;;;;5073074;28;20045;-95
2022/12/08 06:03:29;;;;;;;3.88;3.70;;;;;;;;;;5073604;28;20044;-95
2022/12/08 06:05:56;;;;;;;3.28;3.03;;;;;;;;;;5073520;28;20048;-96
2022/12/08 06:08:22;;;;;;;4.30;4.10;;;;;;;;;;5073281;28;20502;-95
2022/12/08 06:10:50;;;;;;;4.38;4.07;;;;;;;;;;5073544;28;20106;-95
2022/12/08 06:13:17;;;;;;;4.20;3.85;;;;;;;;;;5073305;28;20102;-96
2022/12/08 06:15:43;;;;;;;4.80;4.20;;;;;;;;;;5073548;28;20485;-96
2022/12/08 06:18:10;;;;;;;4.70;4.47;;;;;;;;;;5087824;28;20071;-96
2022/12/08 06:20:36;;;;;;;5.53;5.22;;;;;;;;;;5079510;28;20070;-95
2022/12/08 06:23:03;;;;;;;5.78;5.10;;;;;;;;;;5075741;28;20102;-95
2022/12/08 06:25:29;;;;;;;6.57;6.20;;;;;;;;;;5072905;28;20044;-94
2022/12/08 06:27:57;;;;;;;3.70;3.50;;;;;;;;;;5073240;28;20383;-95
2022/12/08 06:38:09;;;;;;;3.20;3.00;;;;;;;;;;5459664;23;20143;-96
2022/12/08 06:40:35;;;;;;;5.30;4.90;;;;;;;;;;5056838;28;20052;-96
2022/12/08 06:43:03;;;;;;;5.43;5.03;;;;;;;;;;5056563;28;20114;-96
2022/12/08 06:45:29;;;;;;;4.25;3.78;;;;;;;;;;5056901;28;20448;-96
2022/12/08 06:47:56;;;;;;;5.25;4.97;;;;;;;;;;5056862;28;20053;-96
2022/12/08 06:50:22;;;;;;;7.68;5.40;;;;;;;;;;5056766;28;20456;-96
2022/12/08 06:52:49;;;;;;;5.10;4.70;;;;;;;;;;5056724;28;20107;-96
2022/12/08 06:55:16;;;;;;;4.25;3.95;;;;;;;;;;5056290;28;20045;-96
2022/12/08 06:57:42;;;;;;;8.63;7.43;;;;;;;;;;5056464;28;20132;-96
2022/12/08 07:00:11;;;;;;;9.15;8.43;;;;;;;;;;5069331;28;20052;-96
2022/12/08 07:02:38;;;;;;;5.20;4.80;;;;;;;;;;5077985;28;20110;-95
2022/12/08 07:05:04;;;;;;;6.35;6.00;;;;;;;;;;5077905;28;20099;-96
2022/12/08 07:07:31;;;;;;;7.05;6.07;;;;;;;;;;5079162;28;20056;-96
2022/12/08 07:09:57;;;;;;;8.95;8.02;;;;;;;;;;5076608;28;20177;-96
2022/12/08 07:12:24;;;;;;;5.47;5.03;;;;;;;;;;5082473;28;20071;-96
2022/12/08 07:14:50;;;;;;;6.75;6.18;;;;;;;;;;5084394;28;20044;-96
2022/12/08 07:17:18;;;;;;;6.88;5.75;;;;;;;;;;5078318;28;20048;-96
2022/12/08 07:19:45;;;;;;;7.60;6.90;;;;;;;;;;5076397;28;20063;-96
2022/12/08 07:22:11;;;;;;;7.72;5.45;;;;;;;;;;5077096;28;20091;-96
2022/12/08 07:24:38;;;;;;;5.55;5.13;;;;;;;;;;5078055;28;20044;-96
2022/12/08 07:27:04;;;;;;;9.07;7.72;;;;;;;;;;5082547;28;20110;-96
2022/12/08 07:29:31;;;;;;;6.53;6.13;;;;;;;;;;5076031;28;20095;-96
2022/12/08 07:31:57;;;;;;;6.75;6.15;;;;;;;;;;5076125;28;20048;-96
2022/12/08 07:34:25;;;;;;;10.93;6.75;;;;;;;;;;5076899;28;20477;-96
2022/12/08 07:36:52;;;;;;;6.40;5.80;;;;;;;;;;5076207;28;20102;-96
2022/12/08 07:39:18;;;;;;;7.13;6.63;;;;;;;;;;5070814;28;20057;-96
2022/12/08 07:41:45;;;;;;;6.88;6.47;;;;;;;;;;5057247;28;20045;-96
2022/12/08 07:44:11;;;;;;;4.13;3.85;;;;;;;;;;5056695;28;20102;-96
2022/12/08 07:46:38;;;;;;;5.07;4.78;;;;;;;;;;5055745;28;20544;-96
2022/12/08 07:49:04;;;;;;;4.07;3.78;;;;;;;;;;5056425;28;20106;-96
2022/12/08 07:51:32;;;;;;;8.05;7.38;;;;;;;;;;5057017;28;20045;-96
2022/12/08 07:53:58;;;;;;;5.72;5.32;;;;;;;;;;5056113;28;20045;-96
2022/12/08 07:56:25;;;;;;;5.93;5.63;;;;;;;;;;5056546;28;20045;-96
2022/12/08 07:58:51;;;;;;;6.97;6.35;;;;;;;;;;5057040;28;20048;-96
2022/12/08 08:01:20;;;;;;;5.45;5.13;;;;;;;;;;5055914;28;20048;-96
2022/12/08 08:03:46;;;;;;;5.80;5.45;;;;;;;;;;5056049;28;20041;-96
2022/12/08 08:06:13;;;;;;;3.78;3.42;;;;;;;;;;5055799;28;20136;-96
2022/12/08 08:08:41;;;;;;;4.78;4.47;;;;;;;;;;5058719;28;20049;-96
2022/12/08 08:11:07;;;;;;;4.60;4.30;;;;;;;;;;5063425;28;20079;-96
2022/12/08 08:13:50;;;;;;;5.38;4.97;;;;;;;;;;5062518;28;20106;-96
2022/12/08 08:16:17;;;;;;;7.28;6.78;;;;;;;;;;5067575;28;20048;-96
2022/12/08 08:18:46;;;;;;;5.25;4.93;;;;;;;;;;5068907;28;20075;-96
2022/12/08 08:21:29;;;;;;;7.30;7.00;;;;;;;;;;5069241;28;20049;-96
2022/12/08 08:23:55;;;;;;;;;;;;;;;;;;5074692;28;20067;-96
2022/12/08 08:26:23;;;;;;;5.90;5.55;;;;;;;;;;5067839;28;19921;-96
2022/12/08 08:28:50;;;;;;;4.95;4.55;;;;;;;;;;5070467;28;20057;-96
2022/12/08 08:31:34;;;;;;;7.25;6.85;;;;;;;;;;5068823;28;20548;-96
2022/12/08 08:34:04;;;;;;;6.80;6.47;;;;;;;;;;5068416;28;20075;-96
2022/12/08 08:36:31;;;;;;;6.55;4.15;;;;;;;;;;5064383;28;20053;-96
2022/12/08 08:38:57;;;;;;;7.43;6.95;;;;;;;;;;5064976;28;20048;-96
2022/12/08 08:41:25;;;;;;;6.60;6.28;;;;;;;;;;5063805;28;20167;-96
2022/12/08 08:43:52;;;;;;;6.65;6.25;;;;;;;;;;5063661;28;20107;-96
2022/12/08 08:46:18;;;;;;;7.03;6.70;;;;;;;;;;5065616;28;20075;-96
2022/12/08 08:48:49;;;;;;;5.72;5.35;;;;;;;;;;5062456;28;20053;-96
2022/12/08 08:51:16;;;;;;;4.00;3.83;;;;;;;;;;5065467;28;20052;-96
2022/12/08 08:53:42;;;;;;;5.97;5.72;;;;;;;;;;5062790;28;20045;-96
2022/12/08 08:56:09;;;;;;;7.20;6.70;;;;;;;;;;5064463;28;20045;-96
2022/12/08 08:58:37;;;;;;;5.47;5.18;;;;;;;;;;5066668;28;20079;-96
2022/12/08 09:01:04;;;;;;;4.97;4.68;;;;;;;;;;5061597;28;20460;-96
2022/12/08 09:03:30;;;;;;;3.28;3.08;;;;;;;;;;5061824;28;20126;-96
2022/12/08 09:05:57;;;;;;;5.63;5.22;;;;;;;;;;5061916;28;20045;-96
2022/12/08 09:08:24;;;;;;;5.70;5.40;;;;;;;;;;5062164;28;20049;-96
2022/12/08 09:10:51;;;;;;;4.63;4.22;;;;;;;;;;5041745;28;20049;-96
2022/12/08 09:13:17;;;;;;;5.15;3.75;;;;;;;;;;5042236;28;20057;-96
2022/12/08 09:15:45;;;;;;;3.28;3.08;;;;;;;;;;5057192;28;20048;-96
2022/12/08 09:18:12;;;;;;;5.82;5.53;;;;;;;;;;5062438;28;20095;-96
2022/12/08 09:20:38;;;;;;;6.10;5.90;;;;;;;;;;5061651;28;20049;-96
2022/12/08 09:23:05;;;;;;;3.35;3.25;;;;;;;;;;5060662;28;20075;-96
2022/12/08 09:25:31;;;;;;;6.40;6.00;;;;;;;;;;5042516;28;20471;-96
2022/12/08 09:27:58;;;;;;;3.40;3.17;;;;;;;;;;5035787;28;20046;-96
2022/12/08 09:30:24;;;;;;;7.82;7.53;;;;;;;;;;5036239;28;20049;-95
2022/12/08 09:32:52;;;;;;;3.30;3.17;;;;;;;;;;5034714;28;20490;-96
2022/12/08 09:35:18;;;;;;;4.97;4.78;;;;;;;;;;5034663;28;20045;-96
2022/12/08 09:37:45;;;;;;;3.65;3.50;;;;;;;;;;5035286;28;20053;-96
2022/12/08 09:40:15;;;;;;;5.40;5.20;;;;;;;;;;5040031;28;20050;-96
2022/12/08 09:42:44;;;;;;;7.55;7.20;;;;;;;;;;5038371;28;20057;-96
2022/12/08 09:45:11;;;;;;;4.22;4.05;;;;;;;;;;5036804;28;20052;-96
2022/12/08 09:47:40;;;;;;;6.70;6.32;;;;;;;;;;5039738;28;20045;-96
2022/12/08 09:50:12;;;;;;;7.68;7.30;;;;;;;;;;5050889;28;20072;-96
2022/12/08 09:52:56;;;;;;;4.80;4.55;;;;;;;;;;5046189;28;20057;-96
2022/12/08 09:55:24;;;;;;;6.60;6.30;;;;;;;;;;5038619;28;20483;-96
2022/12/08 09:57:57;;;;;;;7.05;6.68;;;;;;;;;;5034551;28;20495;-96
2022/12/08 10:00:24;;;;;;;3.92;3.72;;;;;;;;;;5035813;28;20050;-95
2022/12/08 10:02:50;;;;;;;4.32;4.13;;;;;;;;;;5034994;28;20046;-96
2022/12/08 10:05:20;;;;;;;4.85;4.47;;;;;;;;;;5036437;28;20057;-95
2022/12/08 10:07:48;;;;;;;7.82;7.32;;;;;;;;;;5038112;28;20046;-93
2022/12/08 10:10:22;;;;;;;4.72;4.50;;;;;;;;;;5038042;28;20057;-95
2022/12/08 10:12:53;;;;;;;5.70;5.40;;;;;;;;;;5038885;28;20564;-96
2022/12/08 10:15:28;;;;;;;4.18;3.95;;;;;;;;;;5039374;28;20050;-95
2022/12/08 10:17:56;;;;;;;5.05;4.85;;;;;;;;;;5038863;28;20107;-95
2022/12/08 10:20:24;;;;;;;7.15;6.82;;;;;;;;;;5039130;28;20053;-95
2022/12/08 10:22:55;;;;;;;5.13;4.85;;;;;;;;;;5039990;28;20053;-95
2022/12/08 10:25:32;;;;;;;6.03;5.72;;;;;;;;;;5041494;28;20108;-95
2022/12/08 10:27:58;;;;;;;;;;;;;;;;;;5038992;28;20045;-96
2022/12/08 10:30:25;;;;;;;4.15;3.95;;;;;;;;;;5041495;28;19943;-95
2022/12/08 10:32:52;;;;;;;5.55;5.30;;;;;;;;;;5048459;28;20050;-95
2022/12/08 10:35:19;;;;;;;4.35;4.10;;;;;;;;;;5039884;28;20046;-95
2022/12/08 10:37:54;;;;;;;6.45;3.92;;;;;;;;;;5040875;28;20057;-95
2022/12/08 10:40:21;;;;;;;5.45;5.15;;;;;;;;;;5051196;28;20464;-96
2022/12/08 10:42:57;;;;;;;6.97;6.60;;;;;;;;;;5061692;28;20098;-96
2022/12/08 10:45:26;;;;;;;4.53;4.13;;;;;;;;;;5068445;28;20460;-95
2022/12/08 10:48:00;;;;;;;3.83;3.63;;;;;;;;;;5062157;28;20102;-96
2022/12/08 10:50:33;;;;;;;7.28;6.82;;;;;;;;;;5059802;28;20130;-94
2022/12/08 10:53:02;;;;;;;6.55;6.13;;;;;;;;;;5058541;28;20057;-96
2022/12/08 10:55:29;;;;;;;6.32;5.63;;;;;;;;;;5058744;28;20114;-96
2022/12/08 10:57:56;;;;;;;5.88;5.57;;;;;;;;;;5058137;28;20501;-93
2022/12/08 11:00:24;;;;;;;8.77;6.63;;;;;;;;;;5057855;28;20052;-96
2022/12/08 11:02:52;;;;;;;5.72;5.43;;;;;;;;;;5061328;28;20049;-96
2022/12/08 11:05:20;;;;;;;4.82;4.55;;;;;;;;;;5063121;28;20106;-95
2022/12/08 11:07:47;;;;;;;5.57;5.20;;;;;;;;;;5078452;28;20052;-94
2022/12/08 11:10:18;;;;;;;8.00;7.55;;;;;;;;;;5071444;28;20100;-96
2022/12/08 11:12:44;;;;;;;6.40;6.10;;;;;;;;;;5057347;28;20049;-96
2022/12/08 11:15:15;;;;;;;4.97;4.75;;;;;;;;;;5056512;28;20057;-93
2022/12/08 11:17:44;;;;;;;5.18;4.75;;;;;;;;;;5055934;28;20114;-95
2022/12/08 11:20:20;;;;;;;5.00;4.70;;;;;;;;;;5056427;28;20284;-96
2022/12/08 11:22:51;;;;;;;3.92;3.72;;;;;;;;;;5056811;28;20448;-95
2022/12/08 11:25:20;;;;;;;3.95;3.75;;;;;;;;;;5057368;28;20490;-95
2022/12/08 11:27:48;;;;;;;8.60;7.93;;;;;;;;;;5056197;28;20152;-95
2022/12/08 11:30:16;;;;;;;4.28;4.07;;;;;;;;;;5056314;28;20052;-96
2022/12/08 11:32:44;;;;;;;4.78;4.50;;;;;;;;;;5056269;28;20052;-96
2022/12/08 11:35:17;;;;;;;6.10;5.80;;;;;;;;;;5056087;28;20045;-95
2022/12/08 11:37:44;;;;;;;5.75;5.25;;;;;;;;;;5056960;28;20056;-96
2022/12/08 11:40:15;;;;;;;5.95;5.65;;;;;;;;;;5056156;28;20049;-95
2022/12/08 11:42:47;;;;;;;7.03;6.60;;;;;;;;;;5055938;28;20098;-95
2022/12/08 11:45:19;;;;;;;4.38;4.18;;;;;;;;;;5056133;28;20052;-95
2022/12/08 11:47:49;;;;;;;6.82;6.43;;;;;;;;;;5055730;28;20847;-95
2022/12/08 11:50:19;;;;;;;5.90;5.60;;;;;;;;;;5055628;28;20106;-95
2022/12/08 11:52:47;;;;;;;4.55;4.32;;;;;;;;;;5055387;28;20053;-94
2022/12/08 11:55:18;;;;;;;8.63;5.03;;;;;;;;;;5055640;28;20087;-95
2022/12/08 11:57:47;;;;;;;6.03;5.80;;;;;;;;;;5055635;28;20053;-96
2022/12/08 12:00:14;;;;;;;4.40;4.03;;;;;;;;;;5055778;28;20053;-94
2022/12/08 12:02:44;;;;;;;5.40;5.13;;;;;;;;;;5055390;28;20049;-96
2022/12/08 12:05:15;;;;;;;5.47;5.13;;;;;;;;;;5052336;28;20109;-96
2022/12/08 12:07:55;;;;;;;5.00;4.50;;;;;;;;;;5035325;28;20092;-96
2022/12/08 12:10:28;;;;;;;5.32;4.97;;;;;;;;;;5043439;28;20093;-94
2022/12/08 12:13:08;;;;;;;6.50;5.90;;;;;;;;;;5045297;28;20046;-92
2022/12/08 12:15:53;;;;;;;5.53;5.22;;;;;;;;;;5035071;28;20387;-91
2022/12/08 12:18:24;;;;;;;6.47;4.60;;;;;;;;;;5034946;28;20057;-93
2022/12/08 12:20:53;;;;;;;4.18;3.95;;;;;;;;;;5034819;28;20556;-94
2022/12/08 12:23:21;;;;;;;6.07;5.78;;;;;;;;;;5035435;28;20053;-95
2022/12/08 12:25:50;;;;;;;6.80;6.18;;;;;;;;;;5034768;28;20529;-93
2022/12/08 12:28:18;;;;;;;6.40;6.07;;;;;;;;;;5035071;28;20056;-92
2022/12/08 12:30:53;;;;;;;4.88;4.57;;;;;;;;;;5035024;28;20045;-94
2022/12/08 12:33:20;;;;;;;6.82;6.50;;;;;;;;;;5035265;28;20045;-93
2022/12/08 12:35:47;;;;;;;4.25;4.00;;;;;;;;;;5035227;28;20046;-95
2022/12/08 12:41:05;;;;;;;5.97;5.57;;;;;;;;;;5046082;28;20060;-93
2022/12/08 12:43:37;;;;;;;5.38;4.97;;;;;;;;;;5039297;28;20049;-94
2022/12/08 12:46:22;;;;;;;5.97;5.18;;;;;;;;;;5037284;28;20049;-93
2022/12/08 12:48:49;;;;;;;9.13;4.30;;;;;;;;;;5035434;28;20135;-93
2022/12/08 12:51:44;;;;;;;5.43;5.20;;;;;;;;;;5036243;28;20052;-93
2022/12/08 12:54:21;;;;;;;4.53;4.30;;;;;;;;;;5034920;28;20113;-88
2022/12/08 12:56:49;;;;;;;3.95;3.75;;;;;;;;;;5033673;28;20103;-95
2022/12/08 12:59:35;;;;;;;5.63;5.40;;;;;;;;;;5034763;28;20083;-94
2022/12/08 13:02:02;;;;;;;4.25;4.03;;;;;;;;;;5034402;28;20054;-94
2022/12/08 13:04:34;;;;;;;6.03;5.63;;;;;;;;;;5037000;28;20099;-92
2022/12/08 13:07:00;;;;;;;4.25;3.90;;;;;;;;;;5033989;28;20084;-92
2022/12/08 13:09:29;;;;;;;4.82;4.50;;;;;;;;;;5034494;28;20057;-92
2022/12/08 13:11:57;;;;;;;4.60;4.30;;;;;;;;;;5035180;28;20054;-92
2022/12/08 13:14:28;;;;;;;3.53;3.33;;;;;;;;;;5034540;28;20461;-92
2022/12/08 13:16:57;;;;;;;5.05;3.38;;;;;;;;;;5034432;28;20045;-92
2022/12/08 13:19:24;;;;;;;4.53;4.30;;;;;;;;;;5034236;28;20049;-92
2022/12/08 13:21:50;;;;;;;4.85;4.38;;;;;;;;;;5034273;28;20053;-91
2022/12/08 13:24:27;;;;;;;4.55;4.25;;;;;;;;;;5033745;28;20545;-92
2022/12/08 13:27:08;;;;;;;3.97;3.78;;;;;;;;;;5033937;28;20053;-94
2022/12/08 13:29:36;;;;;;;6.93;6.55;;;;;;;;;;5034038;28;20064;-96
2022/12/08 13:32:04;;;;;;;5.30;4.80;;;;;;;;;;5034695;28;20056;-96
2022/12/08 13:34:34;;;;;;;4.60;4.38;;;;;;;;;;5034500;28;20100;-93
2022/12/08 13:37:18;;;;;;;6.85;5.13;;;;;;;;;;5033820;28;20054;-94
2022/12/08 13:39:49;;;;;;;3.60;3.38;;;;;;;;;;5034048;28;20053;-96
2022/12/08 13:42:19;;;;;;;6.85;6.45;;;;;;;;;;5037535;28;20068;-96
2022/12/08 13:44:47;;;;;;;5.90;5.57;;;;;;;;;;5033611;28;20483;-93
2022/12/08 13:47:17;;;;;;;6.00;5.70;;;;;;;;;;5039506;28;20084;-93
2022/12/08 13:49:49;;;;;;;7.07;6.68;;;;;;;;;;5046996;28;20107;-95
2022/12/08 13:52:18;;;;;;;7.38;4.53;;;;;;;;;;5054018;28;20138;-94
2022/12/08 13:54:45;;;;;;;4.82;4.63;;;;;;;;;;5056872;28;20053;-96
2022/12/08 13:57:20;;;;;;;13.90;5.47;;;;;;;;;;5061167;28;20132;-94
2022/12/08 13:59:46;;;;;;;7.28;5.68;;;;;;;;;;5056615;28;20049;-96
2022/12/08 14:02:22;;;;;;;5.63;5.32;;;;;;;;;;5057908;28;20065;-96
2022/12/08 14:04:49;;;;;;;5.65;5.30;;;;;;;;;;5053344;28;20099;-92
2022/12/08 14:07:16;;;;;;;3.10;3.00;;;;;;;;;;5055038;28;20543;-94
2022/12/08 14:09:42;;;;;;;5.75;5.35;;;;;;;;;;5053619;28;20057;-95
2022/12/08 14:12:17;;;;;;;5.95;5.57;;;;;;;;;;5054639;28;20049;-94
2022/12/08 14:14:46;;;;;;;3.65;3.45;;;;;;;;;;5053853;28;20049;-96
2022/12/08 14:17:13;;;;;;;6.05;5.65;;;;;;;;;;5056368;28;20075;-95
2022/12/08 14:19:44;;;;;;;6.85;6.43;;;;;;;;;;5055005;28;20056;-90
2022/12/08 14:22:12;;;;;;;3.65;3.35;;;;;;;;;;5053075;28;20053;-94
2022/12/08 14:24:39;;;;;;;3.60;3.38;;;;;;;;;;5053297;28;20049;-93
2022/12/08 14:27:07;;;;;;;3.20;3.08;;;;;;;;;;5052855;28;20052;-92
2022/12/08 14:29:38;;;;;;;4.88;4.65;;;;;;;;;;5052608;28;20059;-92
2022/12/08 14:32:05;;;;;;;5.28;4.97;;;;;;;;;;5052769;28;20045;-92
2022/12/08 14:34:39;;;;;;;4.63;4.25;;;;;;;;;;5052653;28;20502;-93
2022/12/08 14:37:08;;;;;;;4.90;4.53;;;;;;;;;;5052431;28;20049;-92
2022/12/08 14:39:34;;;;;;;4.47;4.25;;;;;;;;;;5052549;28;20049;-92
2022/12/08 14:42:01;;;;;;;3.78;3.63;;;;;;;;;;5035843;28;20050;-93
2022/12/08 14:44:31;;;;;;;3.92;3.63;;;;;;;;;;5032427;28;20045;-92
2022/12/08 14:47:04;;;;;;;11.70;4.22;;;;;;;;;;5032581;28;20057;-92
2022/12/08 14:49:31;;;;;;;2.75;2.55;;;;;;;;;;5051413;28;20053;-93
2022/12/08 14:51:59;;;;;;;2.53;2.42;;;;;;;;;;5047463;28;20041;-93
2022/12/08 14:54:29;;;;;;;4.55;4.35;;;;;;;;;;5057179;28;20470;-94
2022/12/08 14:56:56;;;;;;;7.22;4.60;;;;;;;;;;5056439;28;20433;-94
2022/12/08 14:59:25;;;;;;;3.90;3.70;;;;;;;;;;5056176;28;20126;-94
2022/12/08 15:01:53;;;;;;;2.95;2.75;;;;;;;;;;5056261;28;20052;-92
2022/12/08 15:04:23;;;;;;;2.53;2.42;;;;;;;;;;5055695;28;20124;-92
2022/12/08 15:06:52;;;;;;;4.75;4.45;;;;;;;;;;5055596;28;20049;-93
2022/12/08 15:09:29;;;;;;;3.63;3.42;;;;;;;;;;5035959;28;20136;-94